Time;durP1;ratioP1;P1;durP2;ratioP2;P2;SDS_P1;SDS_P2;PMS_P1;PMS_P2;Temp;Humidity;BMP_temperature;BMP_pressure;BME280_temperature;BME280_humidity;BME280_pressure;Samples;Min_cycle;Max_cycle;Signal;HPM_P1;HPM_P2
2023/04/18 00:01:44;;;;;;;22.17;19.37;;;7.40;99.90;;;;;;5013441;28;20492;-65
2023/04/18 00:04:12;;;;;;;23.57;20.97;;;7.30;99.90;;;;;;5012991;28;20463;-65
2023/04/18 00:06:41;;;;;;;23.33;20.23;;;7.30;99.90;;;;;;5013371;28;20513;-65
2023/04/18 00:09:09;;;;;;;24.60;20.50;;;7.30;99.90;;;;;;5012078;28;20493;-64
2023/04/18 00:11:37;;;;;;;26.57;20.53;;;7.30;99.90;;;;;;5011747;28;20484;-65
2023/04/18 00:14:09;;;;;;;27.97;22.17;;;7.30;99.90;;;;;;5020598;28;20491;-64
2023/04/18 00:16:38;;;;;;;25.80;21.67;;;7.20;99.90;;;;;;5016643;28;20963;-64
2023/04/18 00:19:07;;;;;;;24.27;21.60;;;7.20;99.90;;;;;;5016063;28;20523;-65
2023/04/18 00:21:36;;;;;;;25.90;22.97;;;7.30;99.90;;;;;;5016876;28;20515;-65
2023/04/18 00:24:04;;;;;;;24.93;22.40;;;7.20;99.90;;;;;;5012314;28;20468;-65
2023/04/18 00:26:34;;;;;;;26.40;23.13;;;7.20;99.90;;;;;;5012950;28;20471;-64
2023/04/18 00:29:03;;;;;;;28.87;23.63;;;7.20;99.90;;;;;;5009344;28;20499;-65
2023/04/18 00:31:31;;;;;;;29.90;23.20;;;7.20;99.90;;;;;;4998712;28;20868;-65
2023/04/18 00:34:00;;;;;;;31.83;25.20;;;7.20;99.90;;;;;;5008613;28;20498;-64
2023/04/18 00:36:28;;;;;;;30.60;24.60;;;7.20;99.90;;;;;;5007335;28;20471;-65
2023/04/18 00:38:56;;;;;;;30.90;24.27;;;7.20;99.90;;;;;;5010271;28;20537;-64
2023/04/18 00:41:27;;;;;;;28.57;24.10;;;7.20;99.90;;;;;;5014722;28;20502;-65
2023/04/18 00:43:55;;;;;;;33.20;24.70;;;7.10;99.90;;;;;;5019037;28;20478;-64
2023/04/18 00:46:23;;;;;;;29.57;24.57;;;7.10;99.90;;;;;;5012358;28;20476;-64
2023/04/18 00:48:51;;;;;;;31.73;23.87;;;7.10;99.90;;;;;;5017495;28;20494;-64
2023/04/18 00:51:21;;;;;;;31.10;26.43;;;7.10;99.90;;;;;;5021350;28;20483;-65
2023/04/18 00:53:49;;;;;;;31.07;25.13;;;7.10;99.90;;;;;;5019235;28;20478;-65
2023/04/18 00:56:17;;;;;;;27.77;23.57;;;7.10;99.90;;;;;;5021828;28;20475;-65
2023/04/18 00:58:45;;;;;;;30.87;24.67;;;7.00;99.90;;;;;;5020302;28;20486;-70
2023/04/18 01:01:13;;;;;;;30.10;25.47;;;7.00;99.90;;;;;;5030162;28;20497;-65
2023/04/18 01:03:41;;;;;;;35.60;25.60;;;7.00;99.90;;;;;;5014909;28;20537;-64
2023/04/18 01:06:09;;;;;;;31.83;25.30;;;7.00;99.90;;;;;;5009252;28;20479;-65
2023/04/18 01:08:39;;;;;;;32.93;27.10;;;7.00;99.90;;;;;;5009999;28;20503;-64
2023/04/18 01:11:07;;;;;;;30.67;24.20;;;6.90;99.90;;;;;;5010686;28;20503;-65
2023/04/18 01:13:35;;;;;;;30.00;24.63;;;6.90;99.90;;;;;;5008251;28;20475;-65
2023/04/18 01:16:03;;;;;;;29.73;23.80;;;6.90;99.90;;;;;;5010183;28;20507;-65
2023/04/18 01:18:31;;;;;;;28.63;25.00;;;6.80;99.90;;;;;;5010025;28;20491;-64
2023/04/18 01:20:59;;;;;;;31.07;25.50;;;6.80;99.90;;;;;;5008385;28;20486;-65
2023/04/18 01:23:27;;;;;;;29.23;24.30;;;6.80;99.90;;;;;;5008203;28;20478;-64
2023/04/18 01:25:57;;;;;;;33.13;26.20;;;6.80;99.90;;;;;;5006220;28;20474;-65
2023/04/18 01:28:26;;;;;;;27.33;24.20;;;6.70;99.90;;;;;;5014899;28;20498;-64
2023/04/18 01:30:54;;;;;;;29.40;25.00;;;6.70;99.90;;;;;;5003888;28;20541;-65
2023/04/18 01:33:22;;;;;;;33.33;26.53;;;6.70;99.90;;;;;;5004421;28;20478;-64
2023/04/18 01:35:50;;;;;;;30.53;24.77;;;6.60;99.90;;;;;;5009020;28;20483;-65
2023/04/18 01:38:18;;;;;;;29.83;25.10;;;6.60;99.90;;;;;;5015909;28;21623;-65
2023/04/18 01:40:46;;;;;;;31.30;24.13;;;6.60;99.90;;;;;;5011519;28;20478;-64
2023/04/18 01:43:15;;;;;;;30.07;24.00;;;6.60;99.90;;;;;;5005002;28;20474;-64
2023/04/18 01:45:43;;;;;;;31.03;23.90;;;6.60;99.90;;;;;;5005872;28;20968;-64
2023/04/18 01:48:11;;;;;;;29.60;23.83;;;6.60;99.90;;;;;;5009627;28;20490;-65
2023/04/18 01:50:39;;;;;;;27.60;24.27;;;6.50;99.90;;;;;;5007816;28;20482;-64
2023/04/18 01:53:07;;;;;;;29.50;23.47;;;6.50;99.90;;;;;;5011926;28;20482;-64
2023/04/18 01:55:35;;;;;;;28.77;23.33;;;6.50;99.90;;;;;;5011994;28;20505;-64
2023/04/18 01:58:03;;;;;;;28.73;23.77;;;6.50;99.90;;;;;;5009436;28;22288;-65
2023/04/18 02:00:35;;;;;;;30.80;24.03;;;6.40;99.90;;;;;;5006543;28;20894;-64
2023/04/18 02:03:03;;;;;;;32.70;24.77;;;6.40;99.90;;;;;;5002141;28;20507;-64
2023/04/18 02:05:31;;;;;;;31.50;23.30;;;6.40;99.90;;;;;;5003211;28;20467;-64
2023/04/18 02:07:59;;;;;;;31.57;23.63;;;6.40;99.90;;;;;;5006705;28;20491;-64
2023/04/18 02:10:27;;;;;;;30.60;25.10;;;6.30;99.90;;;;;;5004185;28;20467;-69
2023/04/18 02:12:55;;;;;;;28.57;22.57;;;6.30;99.90;;;;;;5002906;28;20484;-64
2023/04/18 02:15:24;;;;;;;30.70;23.40;;;6.30;99.90;;;;;;5002188;28;20497;-64
2023/04/18 02:17:54;;;;;;;27.20;22.27;;;6.30;99.90;;;;;;5010054;28;20498;-64
2023/04/18 02:20:22;;;;;;;30.57;24.90;;;6.20;99.90;;;;;;5013317;28;20467;-65
2023/04/18 02:22:50;;;;;;;26.83;22.33;;;6.20;99.90;;;;;;5007796;28;20492;-64
2023/04/18 02:25:18;;;;;;;29.47;23.80;;;6.20;99.90;;;;;;5012965;28;21098;-65
2023/04/18 02:27:46;;;;;;;29.10;23.47;;;6.20;99.90;;;;;;5011639;28;20499;-64
2023/04/18 02:30:14;;;;;;;29.83;23.03;;;6.10;99.90;;;;;;5015211;28;20479;-65
2023/04/18 02:32:42;;;;;;;30.47;24.10;;;6.10;99.90;;;;;;5011486;28;20491;-64
2023/04/18 02:35:12;;;;;;;31.70;23.57;;;6.10;99.90;;;;;;5014535;28;21214;-64
2023/04/18 02:37:40;;;;;;;29.97;22.17;;;6.00;99.90;;;;;;5015791;28;20475;-64
2023/04/18 02:40:09;;;;;;;26.80;21.80;;;6.00;99.90;;;;;;5014824;28;20484;-64
2023/04/18 02:42:37;;;;;;;27.40;22.37;;;6.00;99.90;;;;;;5011055;28;20483;-64
2023/04/18 02:45:06;;;;;;;25.37;21.83;;;6.00;99.90;;;;;;5005414;28;20478;-64
2023/04/18 02:47:35;;;;;;;24.80;21.67;;;6.00;99.90;;;;;;5009455;28;20467;-64
2023/04/18 02:50:22;;;;;;;27.00;21.97;;;5.90;99.90;;;;;;5008141;28;21118;-64
2023/04/18 02:52:50;;;;;;;27.47;21.93;;;5.90;99.90;;;;;;4999596;28;20498;-64
2023/04/18 02:55:18;;;;;;;28.13;21.47;;;5.90;99.90;;;;;;5004012;28;20494;-64
2023/04/18 02:57:46;;;;;;;26.70;21.90;;;5.90;99.90;;;;;;5004265;28;20483;-64
2023/04/18 03:00:15;;;;;;;33.60;22.40;;;5.90;99.90;;;;;;5007491;28;20471;-64
2023/04/18 03:02:43;;;;;;;27.93;22.53;;;5.90;99.90;;;;;;5022705;28;20510;-65
2023/04/18 03:05:11;;;;;;;28.40;22.90;;;5.80;99.90;;;;;;5025327;28;20468;-65
2023/04/18 03:07:40;;;;;;;24.43;20.60;;;5.80;99.90;;;;;;5009317;28;21236;-64
2023/04/18 03:10:09;;;;;;;27.07;20.80;;;5.80;99.90;;;;;;5012939;28;20494;-64
2023/04/18 03:12:37;;;;;;;25.70;21.00;;;5.70;99.90;;;;;;5014760;28;20902;-64
2023/04/18 03:15:06;;;;;;;26.97;20.70;;;5.70;99.90;;;;;;5010261;28;20468;-64
2023/04/18 03:17:35;;;;;;;27.20;20.90;;;5.70;99.90;;;;;;5006148;28;20478;-64
2023/04/18 03:20:03;;;;;;;25.20;21.00;;;5.70;99.90;;;;;;5011133;28;20478;-64
2023/04/18 03:22:31;;;;;;;24.37;21.47;;;5.70;99.90;;;;;;5006335;28;21005;-65
2023/04/18 03:25:00;;;;;;;25.50;20.40;;;5.60;99.90;;;;;;5010270;28;20467;-64
2023/04/18 03:27:28;;;;;;;25.50;20.50;;;5.60;99.90;;;;;;5009141;28;20464;-64
2023/04/18 03:29:56;;;;;;;24.40;19.47;;;5.60;99.90;;;;;;5002440;28;21029;-64
2023/04/18 03:32:24;;;;;;;24.40;21.03;;;5.60;99.90;;;;;;4998261;28;20492;-65
2023/04/18 03:34:52;;;;;;;25.80;19.87;;;5.50;99.90;;;;;;5002349;28;20466;-64
2023/04/18 03:37:20;;;;;;;25.70;19.30;;;5.50;99.90;;;;;;5010176;28;20491;-64
2023/04/18 03:39:48;;;;;;;24.70;20.97;;;5.50;99.90;;;;;;5015716;28;20494;-65
2023/04/18 03:42:17;;;;;;;24.80;19.90;;;5.50;99.90;;;;;;5011747;28;20495;-65
2023/04/18 03:44:45;;;;;;;22.63;19.10;;;5.50;99.90;;;;;;5011874;28;20479;-65
2023/04/18 03:47:14;;;;;;;24.00;19.10;;;5.50;99.90;;;;;;5013467;28;20475;-64
2023/04/18 03:49:42;;;;;;;23.60;19.37;;;5.50;99.90;;;;;;5012782;28;20503;-65
2023/04/18 03:52:10;;;;;;;24.13;19.37;;;5.40;99.90;;;;;;5003599;28;20502;-64
2023/04/18 03:54:38;;;;;;;23.47;18.43;;;5.40;99.90;;;;;;5013570;28;20480;-64
2023/04/18 03:57:05;;;;;;;24.50;18.30;;;5.40;99.90;;;;;;5013031;28;21092;-64
2023/04/18 03:59:35;;;;;;;25.57;19.63;;;5.40;99.90;;;;;;5009919;28;20933;-64
2023/04/18 04:02:03;;;;;;;22.77;18.90;;;5.40;99.90;;;;;;5010501;28;20500;-64
2023/04/18 04:04:31;;;;;;;21.37;18.30;;;5.30;99.90;;;;;;5010578;28;20551;-64
2023/04/18 04:06:59;;;;;;;21.50;18.60;;;5.30;99.90;;;;;;5014253;28;20467;-64
2023/04/18 04:09:27;;;;;;;24.90;17.70;;;5.30;99.90;;;;;;5018159;28;20495;-65
2023/04/18 04:11:55;;;;;;;22.53;18.03;;;5.30;99.90;;;;;;5006472;28;20944;-66
2023/04/18 04:14:23;;;;;;;22.70;18.60;;;5.20;99.90;;;;;;5009364;28;20471;-64
2023/04/18 04:16:52;;;;;;;21.57;18.07;;;5.20;99.90;;;;;;5008366;28;21095;-64
2023/04/18 04:19:20;;;;;;;23.57;18.07;;;5.20;99.90;;;;;;5007977;28;21034;-65
2023/04/18 04:21:48;;;;;;;22.00;19.13;;;5.20;99.90;;;;;;5004415;28;20560;-64
2023/04/18 04:24:16;;;;;;;22.47;18.53;;;5.20;99.90;;;;;;5008122;28;20471;-64
2023/04/18 04:26:45;;;;;;;23.03;17.83;;;5.20;99.90;;;;;;5005307;28;20498;-64
2023/04/18 04:29:14;;;;;;;23.27;18.53;;;5.20;99.90;;;;;;5005334;28;20503;-65
2023/04/18 04:31:42;;;;;;;21.87;18.03;;;5.10;99.90;;;;;;4998426;28;20552;-64
2023/04/18 04:34:12;;;;;;;21.33;17.77;;;5.10;99.90;;;;;;5004484;28;20561;-64
2023/04/18 04:36:41;;;;;;;22.20;18.57;;;5.10;99.90;;;;;;5006862;28;20568;-65
2023/04/18 04:39:10;;;;;;;22.33;17.73;;;5.10;99.90;;;;;;5004460;28;20487;-64
2023/04/18 04:41:39;;;;;;;22.67;17.87;;;5.10;99.90;;;;;;5007069;28;20490;-65
2023/04/18 04:44:08;;;;;;;23.40;18.73;;;5.10;99.90;;;;;;5010498;28;20561;-65
2023/04/18 04:46:38;;;;;;;22.73;18.33;;;5.10;99.90;;;;;;5007312;28;20463;-64
2023/04/18 04:49:06;;;;;;;23.63;19.40;;;5.10;99.90;;;;;;5006584;28;20914;-64
2023/04/18 04:51:35;;;;;;;23.47;18.60;;;5.10;99.90;;;;;;5008257;28;20498;-64
2023/04/18 04:54:03;;;;;;;23.53;18.77;;;5.10;99.90;;;;;;5017275;28;20479;-65
2023/04/18 04:56:32;;;;;;;21.57;17.30;;;5.10;99.90;;;;;;5012950;28;20634;-64
2023/04/18 04:59:00;;;;;;;19.30;17.30;;;5.10;99.90;;;;;;5010044;28;20502;-65
2023/04/18 05:01:28;;;;;;;21.40;17.27;;;5.10;99.90;;;;;;5010439;28;20517;-65
2023/04/18 05:03:56;;;;;;;21.37;16.00;;;5.10;99.90;;;;;;5010226;28;20613;-64
2023/04/18 05:06:25;;;;;;;25.20;18.40;;;5.10;99.90;;;;;;5030292;28;20492;-64
2023/04/18 05:08:55;;;;;;;19.57;16.77;;;5.10;99.90;;;;;;5017124;28;22225;-64
2023/04/18 05:11:23;;;;;;;20.37;17.90;;;5.10;99.90;;;;;;4997423;28;21230;-64
2023/04/18 05:13:51;;;;;;;21.10;16.67;;;5.20;99.90;;;;;;4994867;28;20486;-66
2023/04/18 05:16:19;;;;;;;19.73;16.77;;;5.20;99.90;;;;;;4995288;28;20495;-64
2023/04/18 05:18:47;;;;;;;21.63;17.50;;;5.20;99.90;;;;;;4991009;28;22741;-64
2023/04/18 05:21:15;;;;;;;21.37;16.70;;;5.20;99.90;;;;;;4996724;28;20491;-64
2023/04/18 05:23:46;;;;;;;18.70;15.93;;;5.30;99.90;;;;;;5005784;28;20499;-64
2023/04/18 05:26:16;;;;;;;18.77;16.10;;;5.30;99.90;;;;;;5009312;28;20480;-64
2023/04/18 05:28:44;;;;;;;21.10;15.63;;;5.30;99.90;;;;;;5009502;28;20510;-64
2023/04/18 05:31:12;;;;;;;18.87;14.73;;;5.40;99.90;;;;;;5005746;28;20864;-64
2023/04/18 05:33:40;;;;;;;19.07;15.40;;;5.40;99.90;;;;;;5008041;28;20479;-64
2023/04/18 05:36:08;;;;;;;19.23;15.70;;;5.50;99.90;;;;;;5007303;28;20980;-64
2023/04/18 05:38:36;;;;;;;18.77;15.03;;;5.50;99.90;;;;;;5014314;28;20495;-64
2023/04/18 05:41:04;;;;;;;16.77;14.77;;;5.50;99.90;;;;;;5001366;28;20483;-64
2023/04/18 05:43:33;;;;;;;15.43;13.83;;;5.60;99.90;;;;;;5004693;28;20482;-64
2023/04/18 05:46:01;;;;;;;18.13;14.17;;;5.70;99.90;;;;;;5013499;28;20475;-64
2023/04/18 05:48:34;;;;;;;16.50;14.17;;;5.70;99.90;;;;;;5015637;28;20492;-64
2023/04/18 05:51:03;;;;;;;16.60;12.70;;;5.80;99.90;;;;;;5001639;28;20498;-64
2023/04/18 05:53:36;;;;;;;16.10;13.47;;;5.80;99.90;;;;;;5012781;28;20499;-64
2023/04/18 05:56:04;;;;;;;14.23;12.73;;;5.90;99.90;;;;;;5013132;28;20475;-64
2023/04/18 05:58:34;;;;;;;16.63;13.20;;;5.90;99.90;;;;;;5013371;28;20493;-64
2023/04/18 06:01:01;;;;;;;14.53;12.10;;;6.00;99.90;;;;;;5014489;28;20494;-63
2023/04/18 06:03:29;;;;;;;17.37;13.07;;;6.00;99.90;;;;;;5022911;28;20478;-64
2023/04/18 06:05:58;;;;;;;14.63;13.13;;;6.10;99.90;;;;;;5015433;28;20479;-64
2023/04/18 06:08:26;;;;;;;14.33;12.30;;;6.10;99.90;;;;;;5013669;28;20886;-64
2023/04/18 06:10:53;;;;;;;16.03;12.57;;;6.20;99.90;;;;;;5013692;28;20487;-64
2023/04/18 06:13:21;;;;;;;14.33;11.60;;;6.30;99.90;;;;;;5014754;28;20471;-64
2023/04/18 06:15:51;;;;;;;15.53;12.67;;;6.30;99.90;;;;;;5017264;28;20838;-64
2023/04/18 06:18:18;;;;;;;14.43;11.73;;;6.40;99.90;;;;;;5020531;28;21008;-64
2023/04/18 06:20:46;;;;;;;14.67;11.43;;;6.50;99.90;;;;;;5014348;28;20463;-64
2023/04/18 06:23:14;;;;;;;14.13;11.33;;;6.50;99.90;;;;;;5013992;28;20463;-64
2023/04/18 06:25:42;;;;;;;15.13;11.27;;;6.50;99.90;;;;;;5014780;28;20490;-64
2023/04/18 06:28:10;;;;;;;13.20;11.80;;;6.60;99.90;;;;;;5011442;28;20495;-64
2023/04/18 06:30:38;;;;;;;12.27;10.70;;;6.70;99.90;;;;;;5015007;28;20827;-65
2023/04/18 06:33:09;;;;;;;12.70;11.40;;;6.80;99.90;;;;;;5015497;28;20819;-64
2023/04/18 06:35:38;;;;;;;13.67;12.37;;;6.80;99.90;;;;;;5009723;28;20467;-64
2023/04/18 06:38:06;;;;;;;15.37;11.00;;;6.90;99.90;;;;;;5016048;28;20499;-64
2023/04/18 06:40:34;;;;;;;12.00;10.60;;;7.00;99.90;;;;;;5022095;28;20482;-64
2023/04/18 06:43:02;;;;;;;12.97;11.67;;;7.10;99.90;;;;;;5021779;28;20480;-64
2023/04/18 06:45:30;;;;;;;13.60;11.40;;;7.10;99.90;;;;;;5018224;28;21023;-64
2023/04/18 06:47:58;;;;;;;12.30;11.13;;;7.20;99.90;;;;;;5010819;28;20940;-64
2023/04/18 06:50:28;;;;;;;14.23;11.07;;;7.20;99.90;;;;;;5017556;28;20494;-64
2023/04/18 06:52:56;;;;;;;11.90;10.70;;;7.30;99.90;;;;;;5013628;28;20838;-64
2023/04/18 06:55:24;;;;;;;12.87;11.57;;;7.40;99.90;;;;;;5015372;28;20582;-64
2023/04/18 06:57:53;;;;;;;12.37;11.17;;;7.50;99.90;;;;;;5013567;28;20522;-64
2023/04/18 07:00:21;;;;;;;12.47;11.13;;;7.50;99.90;;;;;;5014171;28;20589;-64
2023/04/18 07:02:49;;;;;;;15.20;11.43;;;7.60;99.90;;;;;;5012758;28;20491;-64
2023/04/18 07:05:17;;;;;;;13.00;10.70;;;7.60;99.90;;;;;;5014149;28;20471;-67
2023/04/18 07:07:46;;;;;;;14.20;10.33;;;7.70;99.90;;;;;;5019451;28;20479;-65
2023/04/18 07:10:14;;;;;;;15.10;11.43;;;7.80;99.90;;;;;;5032797;28;20486;-64
2023/04/18 07:12:42;;;;;;;15.00;10.93;;;7.80;99.90;;;;;;5027860;28;20491;-64
2023/04/18 07:15:11;;;;;;;12.57;10.87;;;7.90;99.90;;;;;;5022162;28;20491;-64
2023/04/18 07:17:40;;;;;;;11.50;10.30;;;8.00;99.90;;;;;;5014588;28;20534;-64
2023/04/18 07:20:09;;;;;;;11.73;10.63;;;8.00;99.90;;;;;;5014539;28;20884;-65
2023/04/18 07:22:41;;;;;;;13.13;10.47;;;8.00;99.90;;;;;;5013464;28;20988;-65
2023/04/18 07:25:10;;;;;;;10.80;9.70;;;8.10;99.90;;;;;;5011975;28;20487;-64
2023/04/18 07:27:38;;;;;;;12.33;11.13;;;8.20;99.90;;;;;;5014455;28;20467;-64
2023/04/18 07:30:07;;;;;;;12.53;10.23;;;8.20;99.90;;;;;;5013124;28;20474;-64
2023/04/18 07:32:35;;;;;;;14.30;11.10;;;8.30;99.90;;;;;;5009726;28;21409;-65
2023/04/18 07:35:04;;;;;;;10.97;9.93;;;8.40;99.90;;;;;;5013602;28;20553;-64
2023/04/18 07:37:32;;;;;;;14.20;11.80;;;8.50;99.90;;;;;;5010752;28;21095;-65
2023/04/18 07:40:00;;;;;;;11.87;10.67;;;8.60;99.90;;;;;;5016321;28;20474;-64
2023/04/18 07:42:29;;;;;;;10.73;9.63;;;8.70;99.90;;;;;;5018288;28;20879;-64
2023/04/18 07:44:58;;;;;;;12.47;9.97;;;8.80;99.90;;;;;;5019836;28;20492;-64
2023/04/18 07:47:27;;;;;;;11.13;10.10;;;8.80;99.90;;;;;;5015541;28;20474;-64
2023/04/18 07:49:57;;;;;;;13.97;10.53;;;8.90;99.90;;;;;;5005092;28;20502;-65
2023/04/18 07:52:25;;;;;;;15.70;11.07;;;9.00;99.90;;;;;;5010945;28;20495;-63
2023/04/18 07:54:53;;;;;;;11.13;10.00;;;9.10;99.90;;;;;;5018412;28;20781;-62
2023/04/18 07:57:21;;;;;;;10.93;9.83;;;9.20;99.90;;;;;;5021091;28;20476;-62
2023/04/18 07:59:52;;;;;;;11.37;10.23;;;9.20;99.90;;;;;;5019009;28;20492;-63
2023/04/18 08:02:20;;;;;;;12.10;10.17;;;9.30;99.90;;;;;;5018971;28;20479;-62
2023/04/18 08:04:50;;;;;;;11.93;10.83;;;9.40;99.90;;;;;;5010310;28;20493;-62
2023/04/18 08:07:19;;;;;;;11.43;10.10;;;9.50;99.90;;;;;;5011784;28;20467;-62
2023/04/18 08:09:47;;;;;;;13.00;9.97;;;9.60;99.90;;;;;;5012521;28;20492;-63
2023/04/18 08:12:15;;;;;;;10.13;8.87;;;9.60;99.90;;;;;;5010328;28;20570;-63
2023/04/18 08:14:43;;;;;;;10.87;9.77;;;9.70;99.90;;;;;;5012633;28;20468;-63
2023/04/18 08:17:12;;;;;;;13.90;10.67;;;9.90;99.90;;;;;;5009752;28;20608;-61
2023/04/18 08:19:40;;;;;;;11.80;9.83;;;10.00;99.90;;;;;;5011087;28;20502;-62
2023/04/18 08:22:09;;;;;;;10.60;9.53;;;10.10;99.90;;;;;;5013586;28;20999;-61
2023/04/18 08:24:38;;;;;;;10.20;9.30;;;10.20;99.90;;;;;;5019159;28;20472;-63
2023/04/18 08:27:06;;;;;;;11.53;10.40;;;10.30;99.90;;;;;;5014322;28;20555;-62
2023/04/18 08:29:34;;;;;;;12.00;10.80;;;10.30;99.90;;;;;;5011849;28;20495;-62
2023/04/18 08:32:02;;;;;;;11.63;10.63;;;10.30;99.90;;;;;;5010511;28;20586;-63
2023/04/18 08:34:36;;;;;;;11.37;10.17;;;10.30;99.90;;;;;;5011611;28;20541;-64
2023/04/18 08:37:06;;;;;;;11.30;10.20;;;10.40;99.90;;;;;;5010339;28;20470;-62
2023/04/18 08:39:34;;;;;;;12.37;11.07;;;10.40;99.90;;;;;;5012620;28;20501;-61
2023/04/18 08:42:02;;;;;;;12.27;11.00;;;10.50;99.90;;;;;;5011286;28;20506;-63
2023/04/18 08:44:31;;;;;;;12.13;10.93;;;10.50;99.90;;;;;;5014667;28;20488;-63
2023/04/18 08:47:01;;;;;;;12.27;11.10;;;10.60;99.90;;;;;;5011949;28;20475;-63
2023/04/18 08:49:30;;;;;;;12.50;11.40;;;10.50;99.90;;;;;;5013890;28;20512;-62
2023/04/18 08:52:01;;;;;;;11.53;10.47;;;10.60;99.90;;;;;;5016119;28;20491;-62
2023/04/18 08:54:30;;;;;;;12.13;10.93;;;10.50;99.90;;;;;;5019322;28;20467;-62
2023/04/18 08:57:04;;;;;;;12.63;11.33;;;10.50;99.90;;;;;;5018633;28;20471;-63
2023/04/18 08:59:34;;;;;;;12.87;11.67;;;10.60;99.90;;;;;;5012582;28;20494;-62
2023/04/18 09:02:03;;;;;;;12.50;11.30;;;10.60;99.90;;;;;;5008745;28;20603;-63
2023/04/18 09:04:39;;;;;;;13.67;11.00;;;10.60;99.90;;;;;;5013623;28;20876;-63
2023/04/18 09:07:11;;;;;;;12.77;11.47;;;10.80;99.90;;;;;;5009307;28;20470;-62
2023/04/18 09:09:43;;;;;;;12.97;11.77;;;10.90;99.90;;;;;;5013270;28;20483;-62
2023/04/18 09:12:13;;;;;;;12.40;11.27;;;11.00;99.90;;;;;;5031843;28;20506;-61
2023/04/18 09:14:49;;;;;;;11.50;10.37;;;11.00;99.90;;;;;;5029938;28;20988;-62
2023/04/18 09:17:33;;;;;;;12.87;11.20;;;11.00;99.90;;;;;;5015146;28;20479;-63
2023/04/18 09:20:05;;;;;;;11.43;10.43;;;11.00;99.90;;;;;;5013208;28;20491;-63
2023/04/18 09:22:49;;;;;;;12.73;11.50;;;11.00;99.90;;;;;;5014674;28;20518;-62
2023/04/18 09:25:28;;;;;;;12.47;11.30;;;11.00;99.90;;;;;;5015668;28;20485;-62
2023/04/18 09:27:59;;;;;;;12.93;11.60;;;11.00;99.90;;;;;;5014612;28;20509;-62
2023/04/18 09:30:45;;;;;;;12.23;11.13;;;10.90;99.90;;;;;;5014825;28;20514;-62
2023/04/18 09:33:14;;;;;;;13.97;11.97;;;10.90;99.90;;;;;;5014754;28;20508;-62
2023/04/18 09:35:42;;;;;;;13.20;11.83;;;10.80;99.90;;;;;;5014829;28;20471;-62
2023/04/18 09:38:11;;;;;;;11.93;10.80;;;10.80;99.90;;;;;;5015993;28;20714;-62
2023/04/18 09:40:39;;;;;;;12.43;11.30;;;10.80;99.90;;;;;;5014163;28;20487;-62
2023/04/18 09:43:19;;;;;;;12.97;10.73;;;10.80;99.90;;;;;;5012882;28;20486;-63
2023/04/18 09:45:48;;;;;;;12.50;11.20;;;10.80;99.90;;;;;;5014972;28;20475;-62
2023/04/18 09:48:16;;;;;;;11.50;10.40;;;10.80;99.90;;;;;;5016480;28;21041;-62
2023/04/18 09:50:45;;;;;;;12.30;10.67;;;10.80;99.90;;;;;;5010918;28;23656;-61
2023/04/18 09:53:18;;;;;;;11.40;10.30;;;10.80;99.90;;;;;;5010914;28;20481;-61
2023/04/18 09:55:51;;;;;;;11.87;10.60;;;10.80;99.90;;;;;;5013118;28;20478;-61
2023/04/18 09:58:22;;;;;;;12.07;10.90;;;10.80;99.90;;;;;;5011249;28;20507;-61
2023/04/18 10:00:51;;;;;;;11.90;10.90;;;10.80;99.90;;;;;;5019259;28;20968;-62
2023/04/18 10:03:20;;;;;;;12.33;11.13;;;10.70;99.90;;;;;;5022628;28;20490;-62
2023/04/18 10:05:48;;;;;;;12.00;10.90;;;10.70;99.90;;;;;;5010751;28;20483;-62
2023/04/18 10:08:18;;;;;;;11.20;10.20;;;10.70;99.90;;;;;;5010998;28;21039;-62
2023/04/18 10:10:46;;;;;;;11.57;10.50;;;10.70;99.90;;;;;;5011193;28;20474;-65
2023/04/18 10:13:15;;;;;;;11.20;10.20;;;10.60;99.90;;;;;;5013529;28;20474;-62
2023/04/18 10:15:43;;;;;;;11.10;10.00;;;10.60;99.90;;;;;;5013228;28;20541;-62
2023/04/18 10:18:15;;;;;;;11.50;10.30;;;10.60;99.90;;;;;;5010333;28;21042;-62
2023/04/18 10:20:43;;;;;;;11.07;10.03;;;10.60;99.90;;;;;;5011150;28;20498;-64
2023/04/18 10:23:38;;;;;;;11.07;9.97;;;10.60;99.90;;;;;;5013541;28;20488;-61
2023/04/18 10:26:07;;;;;;;11.27;10.07;;;10.60;99.90;;;;;;5012166;28;20475;-62
2023/04/18 10:28:55;;;;;;;10.17;9.13;;;10.60;99.90;;;;;;5012432;28;20692;-62
2023/04/18 10:31:24;;;;;;;11.63;9.33;;;10.60;99.90;;;;;;5012499;28;20873;-62
2023/04/18 10:33:54;;;;;;;10.30;9.40;;;10.60;99.90;;;;;;5013198;28;20475;-62
2023/04/18 10:36:32;;;;;;;10.57;9.57;;;10.60;99.90;;;;;;5009995;28;20482;-62
2023/04/18 10:39:19;;;;;;;10.00;9.00;;;10.60;99.90;;;;;;5010306;28;20527;-62
2023/04/18 10:41:49;;;;;;;10.80;9.83;;;10.60;99.90;;;;;;5014788;28;20545;-60
2023/04/18 10:44:21;;;;;;;10.20;9.27;;;10.60;99.90;;;;;;5020301;28;20475;-61
2023/04/18 10:47:30;;;;;;;10.00;9.10;;;10.70;99.90;;;;;;5013977;28;20646;-61
2023/04/18 10:50:02;;;;;;;10.93;9.97;;;10.80;99.90;;;;;;5011989;28;20471;-62
2023/04/18 10:52:36;;;;;;;11.27;10.03;;;10.90;99.90;;;;;;5010426;28;20847;-62
2023/04/18 10:55:18;;;;;;;11.10;10.20;;;11.10;99.90;;;;;;5014757;28;20475;-62
2023/04/18 10:57:47;;;;;;;10.70;9.70;;;11.20;99.90;;;;;;5011926;28;21195;-62
2023/04/18 11:00:17;;;;;;;11.33;10.23;;;11.30;99.90;;;;;;5014584;28;21063;-62
2023/04/18 11:02:54;;;;;;;11.83;10.77;;;11.30;99.90;;;;;;5006435;28;20607;-62
2023/04/18 11:05:24;;;;;;;11.80;10.70;;;11.40;99.90;;;;;;5008218;28;20603;-62
2023/04/18 11:07:53;;;;;;;12.07;10.63;;;11.40;99.90;;;;;;5011010;28;21043;-63
2023/04/18 11:10:24;;;;;;;11.30;10.17;;;11.40;99.90;;;;;;5013542;28;20468;-61
2023/04/18 11:12:52;;;;;;;11.57;10.57;;;11.50;99.90;;;;;;5011080;28;20486;-61
2023/04/18 11:15:22;;;;;;;12.00;10.80;;;11.60;99.90;;;;;;5022663;28;21007;-62
2023/04/18 11:17:58;;;;;;;11.77;10.67;;;11.60;99.90;;;;;;5019213;28;20487;-63
2023/04/18 11:20:26;;;;;;;12.20;11.10;;;11.60;99.90;;;;;;5008008;28;20580;-64
2023/04/18 11:22:57;;;;;;;12.33;11.27;;;11.60;99.90;;;;;;5009334;28;20484;-63
2023/04/18 11:25:28;;;;;;;11.07;10.10;;;11.60;99.90;;;;;;4998136;28;22394;-61
2023/04/18 11:27:59;;;;;;;11.23;9.93;;;11.70;99.90;;;;;;4997068;28;20599;-61
2023/04/18 11:30:27;;;;;;;11.60;10.53;;;11.70;99.90;;;;;;5003000;28;20471;-62
2023/04/18 11:32:55;;;;;;;11.03;10.03;;;11.80;99.90;;;;;;4997746;28;20486;-61
2023/04/18 11:35:23;;;;;;;11.60;10.43;;;11.90;99.90;;;;;;5003895;28;21080;-61
2023/04/18 11:37:54;;;;;;;11.20;9.10;;;11.90;99.90;;;;;;5003437;28;20492;-60
2023/04/18 11:40:22;;;;;;;9.27;8.37;;;12.00;99.90;;;;;;5000486;28;20491;-61
2023/04/18 11:42:55;;;;;;;9.13;8.33;;;12.10;99.90;;;;;;4992986;28;20488;-62
2023/04/18 11:45:23;;;;;;;9.43;8.63;;;12.20;99.90;;;;;;5000912;28;20471;-62
2023/04/18 11:47:56;;;;;;;8.60;7.80;;;12.20;99.90;;;;;;5002641;28;20490;-62
2023/04/18 11:50:25;;;;;;;8.17;7.43;;;12.30;99.90;;;;;;5003661;28;20479;-62
2023/04/18 11:52:54;;;;;;;9.03;8.20;;;12.20;99.90;;;;;;4991262;28;21493;-62
2023/04/18 11:55:25;;;;;;;8.73;7.93;;;12.30;99.90;;;;;;5005118;28;22226;-62
2023/04/18 11:57:56;;;;;;;9.10;8.20;;;12.20;99.90;;;;;;5005552;28;20605;-62
2023/04/18 12:00:32;;;;;;;9.10;8.30;;;12.30;99.90;;;;;;5015599;28;20508;-63
2023/04/18 12:03:03;;;;;;;8.40;7.70;;;12.30;99.90;;;;;;5017580;28;20571;-62
2023/04/18 12:05:33;;;;;;;9.23;8.43;;;12.30;99.90;;;;;;5011979;28;20477;-62
2023/04/18 12:08:06;;;;;;;8.70;8.00;;;12.40;99.90;;;;;;4999010;28;20600;-63
2023/04/18 12:10:35;;;;;;;8.13;7.43;;;12.40;99.90;;;;;;5000668;28;20467;-62
2023/04/18 12:13:08;;;;;;;7.70;7.00;;;12.50;99.90;;;;;;4999624;28;20534;-61
2023/04/18 12:15:39;;;;;;;8.97;8.07;;;12.60;99.90;;;;;;5027443;28;20528;-61
2023/04/18 12:18:08;;;;;;;8.70;7.90;;;12.70;99.90;;;;;;5024385;28;20514;-61
2023/04/18 12:20:38;;;;;;;8.70;7.80;;;12.90;99.90;;;;;;5032666;28;20484;-66
2023/04/18 12:23:06;;;;;;;8.70;7.77;;;13.10;99.90;;;;;;5008195;28;20493;-62
2023/04/18 12:25:35;;;;;;;7.40;6.80;;;13.20;99.90;;;;;;5017986;28;20472;-64
2023/04/18 12:28:13;;;;;;;7.97;6.73;;;13.30;99.90;;;;;;5014675;28;20594;-61
2023/04/18 12:30:43;;;;;;;7.40;6.70;;;13.50;99.90;;;;;;5009453;28;20764;-62
2023/04/18 12:33:11;;;;;;;7.80;7.03;;;13.70;99.90;;;;;;5004376;28;20459;-63
2023/04/18 12:35:39;;;;;;;7.20;6.50;;;13.80;99.90;;;;;;4997378;28;20471;-63
2023/04/18 12:38:08;;;;;;;7.57;6.70;;;13.90;99.90;;;;;;5004293;28;20582;-62
2023/04/18 12:40:38;;;;;;;6.30;5.80;;;14.00;99.90;;;;;;5015052;28;20511;-62
2023/04/18 12:43:06;;;;;;;7.97;7.13;;;13.90;99.90;;;;;;5016648;28;20476;-64
2023/04/18 12:45:34;;;;;;;6.10;5.60;;;13.90;99.90;;;;;;5012591;28;20471;-63
2023/04/18 12:48:04;;;;;;;5.70;5.30;;;13.80;99.90;;;;;;5016186;28;20889;-63